Time;durP1;ratioP1;P1;durP2;ratioP2;P2;SDS_P1;SDS_P2;PMS_P1;PMS_P2;Temp;Humidity;BMP_temperature;BMP_pressure;BME280_temperature;BME280_humidity;BME280_pressure;Samples;Min_cycle;Max_cycle;Signal;HPM_P1;HPM_P2
2022/11/01 00:01:06;;;;;;;16.25;9.32;;;;;;;13.68;100.00;100503.66;4984823;28;20046;-51
2022/11/01 00:03:32;;;;;;;15.48;9.82;;;;;;;13.72;100.00;100510.50;4976437;28;20039;-50
2022/11/01 00:05:57;;;;;;;14.63;9.32;;;;;;;13.19;100.00;100407.41;4971443;28;20471;-53
2022/11/01 00:08:22;;;;;;;13.98;8.82;;;;;;;13.47;100.00;100455.34;4980317;28;20096;-56
2022/11/01 00:10:48;;;;;;;17.70;9.50;;;;;;;13.81;100.00;100501.22;4982282;28;20062;-55
2022/11/01 00:13:13;;;;;;;12.73;8.80;;;;;;;13.84;100.00;100503.72;4987160;28;20081;-50
2022/11/01 00:15:38;;;;;;;15.93;8.90;;;;;;;13.76;100.00;100490.91;4976426;28;20039;-55
2022/11/01 00:18:04;;;;;;;13.40;8.68;;;;;;;13.76;100.00;100490.03;4992524;28;20065;-50
2022/11/01 00:20:29;;;;;;;13.13;8.75;;;;;;;13.89;100.00;100493.78;4992467;28;20035;-55
2022/11/01 00:22:54;;;;;;;12.07;8.38;;;;;;;13.64;100.00;100443.91;4981554;28;20062;-57
2022/11/01 00:25:20;;;;;;;19.27;9.05;;;;;;;13.66;100.00;100438.56;4987780;28;20390;-54
2022/11/01 00:27:45;;;;;;;16.45;9.00;;;;;;;13.86;100.00;100473.63;4976367;28;20074;-55
2022/11/01 00:30:10;;;;;;;11.68;8.52;;;;;;;13.96;100.00;100484.56;4987273;28;20085;-56
2022/11/01 00:32:36;;;;;;;17.63;9.57;;;;;;;13.74;100.00;100431.94;4981642;28;20104;-52
2022/11/01 00:35:01;;;;;;;14.80;8.85;;;;;;;14.01;100.00;100477.25;4980442;28;20039;-54
2022/11/01 00:37:28;;;;;;;13.32;8.02;;;;;;;14.02;100.00;100461.31;4987424;28;20038;-53
2022/11/01 00:39:53;;;;;;;15.68;8.80;;;;;;;13.83;100.00;100423.53;4976441;28;20409;-59
2022/11/01 00:42:18;;;;;;;11.82;9.35;;;;;;;13.91;100.00;100423.97;4985966;28;20031;-50
2022/11/01 00:44:43;;;;;;;13.00;8.70;;;;;;;14.01;100.00;100438.41;4982783;28;20038;-53
2022/11/01 00:47:09;;;;;;;15.60;7.85;;;;;;;14.22;100.00;100467.31;4979486;28;20125;-52
2022/11/01 00:49:34;;;;;;;13.73;7.50;;;;;;;14.17;100.00;100440.25;4992796;28;20034;-51
2022/11/01 00:51:59;;;;;;;12.98;8.73;;;;;;;14.21;100.00;100449.75;4980865;28;20030;-50
2022/11/01 00:54:25;;;;;;;11.75;7.72;;;;;;;14.34;100.00;100464.06;4988803;28;20066;-54
2022/11/01 00:56:50;;;;;;;14.20;8.15;;;;;;;14.28;100.00;100449.31;4987423;28;20034;-58
2022/11/01 00:59:15;;;;;;;11.23;7.45;;;;;;;14.39;100.00;100448.81;4980898;28;20441;-49
2022/11/01 01:01:40;;;;;;;14.95;8.05;;;;;;;14.39;100.00;100440.84;4991390;28;20474;-50
2022/11/01 01:04:06;;;;;;;13.75;8.30;;;;;;;13.97;100.00;100370.72;4981737;28;20038;-51
2022/11/01 01:06:31;;;;;;;10.98;7.78;;;;;;;14.51;100.00;100453.41;4988215;28;20035;-56
2022/11/01 01:08:58;;;;;;;14.60;8.13;;;;;;;14.17;100.00;100396.09;4988108;28;20031;-53
2022/11/01 01:11:23;;;;;;;12.00;8.20;;;;;;;14.09;100.00;100404.47;4980775;28;20046;-57
2022/11/01 01:13:49;;;;;;;11.68;7.63;;;;;;;14.34;100.00;100445.53;4992620;28;20425;-54
2022/11/01 01:16:14;;;;;;;13.93;8.77;;;;;;;14.36;100.00;100447.16;4980898;28;20035;-50
2022/11/01 01:18:39;;;;;;;11.40;7.28;;;;;;;14.30;100.00;100436.03;4996019;28;20038;-52
2022/11/01 01:21:05;;;;;;;10.88;7.43;;;;;;;14.15;100.00;100389.19;4995878;28;20134;-53
2022/11/01 01:23:30;;;;;;;13.88;8.40;;;;;;;14.47;100.00;100436.84;4979764;28;20038;-52
2022/11/01 01:25:56;;;;;;;12.05;7.13;;;;;;;14.56;100.00;100446.09;4990999;28;20497;-55
2022/11/01 01:28:21;;;;;;;13.95;8.55;;;;;;;14.62;100.00;100448.41;4982896;28;20038;-51
2022/11/01 01:30:46;;;;;;;10.00;6.68;;;;;;;14.50;100.00;100414.63;4983726;28;20038;-57
2022/11/01 01:33:12;;;;;;;12.63;7.80;;;;;;;14.39;100.00;100394.03;4989490;28;20031;-56
2022/11/01 01:35:37;;;;;;;11.80;7.13;;;;;;;14.70;100.00;100438.22;4979416;28;20506;-53
2022/11/01 01:38:03;;;;;;;12.05;7.10;;;;;;;14.44;100.00;100388.50;4991217;28;20482;-50
2022/11/01 01:40:28;;;;;;;9.70;6.85;;;;;;;14.77;100.00;100442.22;4983579;28;20037;-54
2022/11/01 01:42:54;;;;;;;11.50;6.95;;;;;;;14.80;100.00;100435.94;4994245;28;20121;-54
2022/11/01 01:45:28;;;;;;;16.20;7.40;;;;;;;14.83;100.00;100433.06;4995206;28;20125;-50
2022/11/01 01:47:55;;;;;;;11.73;6.68;;;;;;;14.77;100.00;100421.03;4992028;28;20544;-49
2022/11/01 01:50:31;;;;;;;11.48;7.18;;;;;;;14.73;100.00;100400.09;4982463;28;20034;-53
2022/11/01 01:52:58;;;;;;;11.65;7.45;;;;;;;14.98;100.00;100434.88;4982645;28;20089;-52
2022/11/01 01:55:44;;;;;;;10.75;6.63;;;;;;;15.02;100.00;100433.75;4989478;28;20050;-54
2022/11/01 01:58:12;;;;;;;11.20;6.47;;;;;;;14.79;100.00;100387.38;4980606;28;20038;-55
2022/11/01 02:00:37;;;;;;;12.35;7.00;;;;;;;15.10;100.00;100431.53;4995152;28;20038;-53
2022/11/01 02:03:04;;;;;;;8.35;6.78;;;;;;;15.16;100.00;100442.63;4965367;28;20401;-53
2022/11/01 02:05:45;;;;;;;11.27;7.07;;;;;;;15.08;100.00;100431.63;5002914;28;20475;-53
2022/11/01 02:08:11;;;;;;;11.35;7.35;;;;;;;15.06;100.00;100430.84;4981113;28;20042;-60
2022/11/01 02:10:37;;;;;;;10.77;6.50;;;;;;;14.86;100.00;100407.25;4993457;28;20030;-55
2022/11/01 02:13:10;;;;;;;10.68;6.18;;;;;;;14.75;100.00;100377.88;4993437;28;20062;-60
2022/11/01 02:15:43;;;;;;;9.93;6.80;;;;;;;15.01;100.00;100447.94;4994093;28;20034;-49
2022/11/01 02:18:36;;;;;;;10.63;6.65;;;;;;;15.07;100.00;100459.06;4989838;28;20533;-52
2022/11/01 02:21:26;;;;;;;10.98;6.70;;;;;;;15.04;100.00;100448.63;4983664;28;20057;-50
2022/11/01 02:24:26;;;;;;;11.82;5.50;;;;;;;14.79;100.00;100418.31;4978617;28;20398;-53
2022/11/01 02:26:57;;;;;;;9.52;4.55;;;;;;;14.94;100.00;100466.00;4983747;28;20091;-54
2022/11/01 02:29:46;;;;;;;4.63;3.75;;;;;;;14.95;100.00;100473.00;4989906;28;20100;-55
2022/11/01 02:32:30;;;;;;;4.15;3.00;;;;;;;14.63;100.00;100426.25;4987994;28;20060;-51
2022/11/01 02:34:59;;;;;;;4.40;2.72;;;;;;;14.61;100.00;100434.28;4983501;28;20046;-55
2022/11/01 02:37:42;;;;;;;5.93;2.13;;;;;;;14.83;100.00;100492.22;5005140;28;20496;-49
2022/11/01 02:40:15;;;;;;;4.28;1.92;;;;;;;14.50;100.00;100449.06;4994117;28;20030;-59
2022/11/01 02:42:44;;;;;;;3.33;1.85;;;;;;;14.75;100.00;100501.53;4992994;28;20452;-54
2022/11/01 02:45:26;;;;;;;2.95;2.30;;;;;;;14.67;100.00;100523.16;4999195;28;20030;-52
2022/11/01 02:47:52;;;;;;;5.75;1.80;;;;;;;14.58;100.00;100507.78;4992925;28;20512;-56
2022/11/01 02:50:18;;;;;;;2.97;1.67;;;;;;;14.55;100.00;100495.56;4994041;28;20540;-49
2022/11/01 02:52:44;;;;;;;4.93;1.95;;;;;;;14.35;100.00;100490.47;4984417;28;20122;-56
2022/11/01 02:55:28;;;;;;;3.45;1.60;;;;;;;14.46;100.00;100537.56;4986281;28;20046;-57
2022/11/01 02:57:55;;;;;;;4.30;1.40;;;;;;;14.36;100.00;100529.22;4978247;28;20535;-57
2022/11/01 03:00:24;;;;;;;1.98;1.20;;;;;;;14.12;100.00;100492.59;4992742;28;20030;-54
2022/11/01 03:02:56;;;;;;;3.03;1.70;;;;;;;14.30;100.00;100536.63;4993766;28;20026;-50
2022/11/01 03:05:43;;;;;;;4.13;1.20;;;;;;;14.24;100.00;100551.03;4992805;28;20934;-56
2022/11/01 03:08:12;;;;;;;1.80;1.27;;;;;;;14.22;100.00;100567.91;4993787;28;20049;-51
2022/11/01 03:10:44;;;;;;;2.03;1.10;;;;;;;14.17;100.00;100551.41;4991457;28;20425;-56
2022/11/01 03:13:16;;;;;;;3.30;0.95;;;;;;;14.19;100.00;100563.63;4979181;28;20039;-53
2022/11/01 03:15:56;;;;;;;3.90;1.40;;;;;;;14.11;100.00;100571.13;4989063;28;20035;-53
2022/11/01 03:18:29;;;;;;;4.50;1.20;;;;;;;13.77;100.00;100528.78;4990702;28;20038;-52
2022/11/01 03:21:14;;;;;;;2.75;1.10;;;;;;;14.05;100.00;100584.66;4992252;28;20042;-52
2022/11/01 03:23:48;;;;;;;4.22;1.40;;;;;;;13.75;100.00;100543.84;4976047;28;20026;-48
2022/11/01 03:26:16;;;;;;;2.30;1.00;;;;;;;13.99;100.00;100588.47;5002925;28;20027;-53
2022/11/01 03:28:45;;;;;;;5.88;1.40;;;;;;;13.76;100.00;100548.22;4982373;28;20114;-53
2022/11/01 03:31:17;;;;;;;4.68;1.40;;;;;;;13.95;100.00;100605.44;4978665;28;20035;-49
2022/11/01 03:33:46;;;;;;;3.83;1.40;;;;;;;13.68;100.00;100563.63;5005116;28;20356;-50
2022/11/01 03:36:14;;;;;;;4.13;1.23;;;;;;;13.98;100.00;100631.75;4977795;28;20027;-49
2022/11/01 03:38:43;;;;;;;3.65;1.38;;;;;;;13.91;100.00;100603.03;4999199;28;20034;-51
2022/11/01 03:41:12;;;;;;;9.85;1.98;;;;;;;14.01;100.00;100618.38;4986783;28;20486;-56
2022/11/01 03:43:37;;;;;;;4.47;1.30;;;;;;;13.71;100.00;100580.22;4954953;28;20447;-57
2022/11/01 03:46:03;;;;;;;5.93;1.40;;;;;;;13.65;100.00;100599.03;4950732;29;20051;-51
2022/11/01 03:48:28;;;;;;;3.63;1.23;;;;;;;13.76;100.00;100628.44;4943420;28;20054;-54
2022/11/01 03:50:56;;;;;;;8.85;1.48;;;;;;;13.49;100.00;100590.09;4943952;29;20551;-52
2022/11/01 03:53:22;;;;;;;9.95;1.40;;;;;;;13.83;100.00;100660.75;4966378;28;20051;-52
2022/11/01 03:55:48;;;;;;;5.50;1.50;;;;;;;13.79;100.00;100640.66;4954890;28;20254;-54
2022/11/01 03:58:13;;;;;;;5.15;1.42;;;;;;;13.61;100.00;100617.75;4965272;28;20499;-55
2022/11/01 04:00:43;;;;;;;4.53;1.30;;;;;;;13.84;100.00;100644.81;4960663;28;20406;-50
2022/11/01 04:03:09;;;;;;;4.47;1.40;;;;;;;13.89;100.00;100657.81;4957930;28;20047;-55
2022/11/01 04:05:37;;;;;;;7.30;1.50;;;;;;;13.57;100.00;100614.41;4967522;28;20035;-49
2022/11/01 04:08:02;;;;;;;7.07;1.75;;;;;;;13.78;100.00;100652.16;4955909;28;20047;-52
2022/11/01 04:10:28;;;;;;;7.70;1.50;;;;;;;13.85;100.00;100686.22;4963277;28;20494;-55
2022/11/01 04:12:54;;;;;;;3.78;1.63;;;;;;;13.70;100.00;100676.34;4946778;28;20173;-49
2022/11/01 04:20:50;;;;;;;8.85;1.70;;;;;;;13.73;100.00;100694.72;4992456;28;20045;-50
2022/11/01 04:23:16;;;;;;;10.68;1.90;;;;;;;13.73;100.00;100694.72;4978112;28;20147;-53
2022/11/01 04:25:43;;;;;;;10.30;2.47;;;;;;;13.47;100.00;100650.16;4988003;28;20498;-57
2022/11/01 04:28:08;;;;;;;8.40;1.85;;;;;;;13.25;100.00;100623.00;4976714;28;20034;-51
2022/11/01 04:30:34;;;;;;;9.20;1.80;;;;;;;13.50;100.00;100687.88;4982983;28;20058;-50
2022/11/01 04:32:59;;;;;;;7.28;1.63;;;;;;;13.65;100.00;100722.47;4984740;28;20493;-50
2022/11/01 04:35:24;;;;;;;7.78;2.10;;;;;;;13.32;100.00;100675.50;4977225;28;20034;-52
2022/11/01 04:37:57;;;;;;;9.98;1.88;;;;;;;13.44;100.00;100714.59;4987908;28;20062;-47
2022/11/01 04:40:23;;;;;;;12.43;3.25;;;;;;;13.42;100.00;100719.13;4978558;28;20121;-52
2022/11/01 04:42:48;;;;;;;6.80;1.90;;;;;;;13.41;100.00;100732.41;4980922;28;20085;-53
2022/11/01 04:45:13;;;;;;;9.73;2.42;;;;;;;13.32;100.00;100715.16;4986632;28;20058;-47
2022/11/01 04:47:49;;;;;;;8.80;2.25;;;;;;;13.07;100.00;100701.31;4976132;28;20031;-54
2022/11/01 04:50:15;;;;;;;6.80;1.63;;;;;;;12.80;100.00;100666.41;4985326;28;20467;-55
2022/11/01 04:52:40;;;;;;;10.07;2.63;;;;;;;13.04;100.00;100704.09;4982043;28;20148;-52
2022/11/01 04:55:06;;;;;;;8.65;2.28;;;;;;;13.08;100.00;100733.91;4979713;28;20059;-55
2022/11/01 04:57:37;;;;;;;11.68;3.05;;;;;;;13.06;100.00;100704.00;4987535;28;20077;-51
2022/11/01 05:00:03;;;;;;;9.32;1.98;;;;;;;13.03;100.00;100718.22;4977015;28;20088;-50
2022/11/01 05:02:29;;;;;;;12.07;2.65;;;;;;;13.09;100.00;100728.56;4992396;28;20046;-48
2022/11/01 05:04:54;;;;;;;9.00;2.22;;;;;;;13.02;100.00;100727.06;4981230;28;20070;-52
2022/11/01 05:07:19;;;;;;;9.82;2.35;;;;;;;12.62;100.00;100669.84;4987170;28;20471;-49
2022/11/01 05:09:45;;;;;;;9.73;2.60;;;;;;;12.91;100.00;100732.84;4975962;28;20038;-54
2022/11/01 05:12:10;;;;;;;8.32;1.67;;;;;;;12.83;100.00;100724.38;4986746;28;20042;-52
2022/11/01 05:14:35;;;;;;;8.07;1.67;;;;;;;12.75;100.00;100726.50;4980213;28;20034;-51
2022/11/01 05:17:00;;;;;;;7.55;1.80;;;;;;;12.33;100.00;100672.88;4992204;28;20397;-48
2022/11/01 05:19:26;;;;;;;9.02;2.05;;;;;;;12.68;100.00;100734.75;4992405;28;20038;-48
2022/11/01 05:21:51;;;;;;;9.02;2.60;;;;;;;12.67;100.00;100731.25;4992127;28;20035;-52
2022/11/01 05:24:17;;;;;;;8.07;1.55;;;;;;;12.69;100.00;100718.84;4990754;28;20038;-54
2022/11/01 05:26:43;;;;;;;7.40;2.08;;;;;;;12.48;100.00;100695.13;4992171;28;20034;-49
2022/11/01 05:29:08;;;;;;;12.25;2.72;;;;;;;12.79;100.00;100736.00;4992358;28;20045;-48
2022/11/01 05:31:33;;;;;;;13.77;2.22;;;;;;;12.78;100.00;100731.63;4991993;28;20125;-53
2022/11/01 05:33:59;;;;;;;8.63;2.30;;;;;;;12.38;100.00;100670.88;4993659;28;20545;-52
2022/11/01 05:36:24;;;;;;;8.93;1.55;;;;;;;12.84;100.00;100747.22;5010602;28;20117;-51
2022/11/01 05:38:49;;;;;;;8.52;2.03;;;;;;;12.01;100.00;100632.00;4995554;28;20034;-49
2022/11/01 05:41:15;;;;;;;9.82;1.83;;;;;;;12.72;100.00;100742.50;4995407;28;20443;-51
2022/11/01 05:43:40;;;;;;;11.00;2.28;;;;;;;12.77;100.00;100760.75;4995854;28;20505;-53
2022/11/01 05:46:06;;;;;;;9.40;1.95;;;;;;;12.44;100.00;100699.66;4995464;28;20046;-58
2022/11/01 05:48:33;;;;;;;12.43;2.95;;;;;;;12.75;100.00;100752.06;4995505;28;20045;-53
2022/11/01 05:50:58;;;;;;;12.70;3.92;;;;;;;12.70;100.00;100746.94;5010520;28;20121;-49
2022/11/01 05:53:23;;;;;;;12.23;2.97;;;;;;;12.57;100.00;100721.13;5010487;28;20177;-50
2022/11/01 05:55:49;;;;;;;10.45;2.88;;;;;;;12.79;100.00;100766.84;5010178;28;20418;-49
2022/11/01 05:58:14;;;;;;;12.15;2.67;;;;;;;12.87;100.00;100770.88;4994512;28;20394;-51
2022/11/01 06:00:39;;;;;;;13.55;2.80;;;;;;;12.60;100.00;100716.59;4994040;28;20065;-50
2022/11/01 06:03:05;;;;;;;13.32;3.03;;;;;;;13.02;100.00;100768.50;4994578;28;20125;-52
2022/11/01 06:05:31;;;;;;;9.25;2.50;;;;;;;13.02;100.00;100768.50;4993156;28;20037;-55
2022/11/01 06:07:57;;;;;;;12.27;3.55;;;;;;;12.94;100.00;100777.63;4992301;28;20139;-50
2022/11/01 06:10:22;;;;;;;16.65;3.88;;;;;;;12.87;100.00;100764.75;5009570;28;20077;-50
2022/11/01 06:12:48;;;;;;;14.00;3.33;;;;;;;12.52;100.00;100708.13;4992983;28;20096;-47
2022/11/01 06:15:13;;;;;;;11.60;2.50;;;;;;;12.67;100.00;100738.28;4993526;28;20102;-48
2022/11/01 06:17:39;;;;;;;16.90;3.30;;;;;;;12.61;100.00;100726.22;4994895;28;20026;-50
2022/11/01 06:20:05;;;;;;;12.10;2.65;;;;;;;12.56;100.00;100714.13;5010104;28;20026;-48
2022/11/01 06:22:30;;;;;;;10.15;2.60;;;;;;;12.93;100.00;100783.81;4994878;28;20039;-49
2022/11/01 06:24:55;;;;;;;15.00;2.90;;;;;;;12.85;100.00;100771.84;4994794;28;20077;-55
2022/11/01 06:27:20;;;;;;;12.38;2.72;;;;;;;13.00;100.00;100792.34;5009993;28;20049;-55
2022/11/01 06:29:46;;;;;;;14.63;3.03;;;;;;;12.91;100.00;100783.03;4994653;28;20386;-48
2022/11/01 06:32:11;;;;;;;16.73;3.20;;;;;;;13.04;100.00;100809.78;4994797;28;20045;-51
2022/11/01 06:34:36;;;;;;;12.85;3.78;;;;;;;13.09;100.00;100836.03;4994695;28;20084;-49
2022/11/01 06:37:02;;;;;;;14.68;2.95;;;;;;;13.07;100.00;100806.16;4993422;28;20474;-48
2022/11/01 06:39:27;;;;;;;12.88;2.95;;;;;;;13.03;100.00;100809.84;4994481;28;20296;-49
2022/11/01 06:41:52;;;;;;;16.92;3.70;;;;;;;13.02;100.00;100814.25;4994345;28;20038;-49
2022/11/01 06:44:18;;;;;;;11.20;2.53;;;;;;;12.99;100.00;100832.88;4994143;28;20049;-51
2022/11/01 06:46:43;;;;;;;17.25;3.88;;;;;;;12.98;100.00;100831.19;4994393;28;20038;-50
2022/11/01 06:49:08;;;;;;;17.52;2.78;;;;;;;12.97;100.00;100835.59;4994764;28;20125;-49
2022/11/01 06:51:34;;;;;;;14.70;3.65;;;;;;;12.61;100.00;100757.91;4994346;28;20057;-50
2022/11/01 06:53:59;;;;;;;20.75;4.07;;;;;;;12.97;100.00;100840.91;4993413;28;20113;-51
2022/11/01 06:56:25;;;;;;;12.63;3.28;;;;;;;12.98;100.00;100839.97;5008764;28;20344;-47
2022/11/01 06:58:50;;;;;;;13.60;3.10;;;;;;;12.72;100.00;100776.81;4993136;28;20461;-52
2022/11/01 07:01:17;;;;;;;16.98;3.88;;;;;;;13.07;100.00;100861.66;4994103;28;20030;-51
2022/11/01 07:03:44;;;;;;;12.85;2.63;;;;;;;13.02;100.00;100859.19;4994181;28;20393;-56
2022/11/01 07:06:09;;;;;;;18.30;3.20;;;;;;;13.01;100.00;100865.41;5009111;28;20030;-48
2022/11/01 07:08:35;;;;;;;15.02;3.28;;;;;;;13.10;100.00;100878.28;4992609;28;20085;-49
2022/11/01 07:11:00;;;;;;;18.80;3.25;;;;;;;13.06;100.00;100858.16;4993222;28;20038;-51
2022/11/01 07:13:25;;;;;;;11.07;3.50;;;;;;;13.20;100.00;100886.66;5007020;28;20065;-55
2022/11/01 07:15:51;;;;;;;13.43;3.67;;;;;;;13.25;100.00;100892.63;4992281;28;20433;-52
2022/11/01 07:18:16;;;;;;;13.55;2.97;;;;;;;13.25;100.00;100893.47;4992263;28;20034;-49
2022/11/01 07:20:41;;;;;;;12.32;3.08;;;;;;;13.02;100.00;100839.84;4992350;28;20050;-50
2022/11/01 07:23:15;;;;;;;16.85;2.85;;;;;;;12.96;100.00;100848.88;4992372;28;20038;-49
2022/11/01 07:25:41;;;;;;;14.68;2.78;;;;;;;13.35;100.00;100915.09;4990837;28;20037;-49
2022/11/01 07:28:06;;;;;;;10.85;2.67;;;;;;;13.06;100.00;100874.00;4992093;28;20419;-54
2022/11/01 07:30:32;;;;;;;15.75;4.25;;;;;;;13.32;100.00;100912.56;4992409;28;20038;-55
2022/11/01 07:33:00;;;;;;;13.25;3.90;;;;;;;13.08;100.00;100905.66;5007072;28;20125;-53
2022/11/01 07:35:26;;;;;;;10.75;2.60;;;;;;;13.27;100.00;100959.50;5007270;28;20544;-50
2022/11/01 07:37:51;;;;;;;11.07;2.92;;;;;;;13.26;100.00;100949.84;4991873;28;20035;-49
2022/11/01 07:40:18;;;;;;;8.80;2.60;;;;;;;13.28;100.00;100955.94;5007341;28;20053;-51
2022/11/01 07:42:44;;;;;;;14.70;3.33;;;;;;;12.90;100.00;100913.41;4992052;28;20066;-53
2022/11/01 07:45:10;;;;;;;11.75;2.60;;;;;;;13.16;100.00;100936.16;4992052;28;20062;-50
2022/11/01 07:47:36;;;;;;;11.68;2.60;;;;;;;13.08;100.00;100969.09;4991868;28;20371;-54
2022/11/01 07:50:01;;;;;;;13.23;3.22;;;;;;;12.97;100.00;100964.22;4990463;28;20045;-48
2022/11/01 07:52:26;;;;;;;17.65;2.90;;;;;;;12.90;100.00;100952.19;4991362;28;20046;-49
2022/11/01 07:54:52;;;;;;;11.50;2.80;;;;;;;12.98;100.00;100980.03;5006258;28;20505;-49
2022/11/01 07:57:17;;;;;;;14.52;3.20;;;;;;;12.69;100.00;100924.84;4991092;28;20042;-48
2022/11/01 07:59:42;;;;;;;14.80;2.50;;;;;;;13.04;100.00;100992.13;4991253;28;20121;-47
2022/11/01 08:02:08;;;;;;;14.98;3.78;;;;;;;12.85;100.00;100952.34;4991585;28;20042;-51
2022/11/01 08:04:33;;;;;;;14.48;3.80;;;;;;;12.96;100.00;100983.63;4991496;28;20046;-49
2022/11/01 08:06:59;;;;;;;13.35;3.22;;;;;;;12.84;100.00;100963.84;4991405;28;20043;-54
2022/11/01 08:09:24;;;;;;;15.20;3.00;;;;;;;12.95;100.00;101001.28;4991282;28;20038;-47
2022/11/01 08:11:49;;;;;;;11.85;2.97;;;;;;;12.92;100.00;100997.91;4991351;28;20378;-47
2022/11/01 08:14:15;;;;;;;9.52;2.50;;;;;;;12.59;100.00;100955.16;4991209;28;20034;-52
2022/11/01 08:16:40;;;;;;;12.13;2.75;;;;;;;12.63;100.00;100971.75;4990952;28;20042;-48
2022/11/01 08:19:06;;;;;;;16.15;3.40;;;;;;;12.95;100.00;101025.06;4991348;28;20397;-47
2022/11/01 08:21:31;;;;;;;15.40;4.28;;;;;;;12.95;100.00;101013.63;4991329;28;20053;-47
2022/11/01 08:23:56;;;;;;;5.65;1.98;;;;;;;12.98;100.00;101042.56;4991205;28;20043;-52
2022/11/01 08:26:22;;;;;;;14.38;3.92;;;;;;;12.99;100.00;101039.00;4991740;28;20047;-54
2022/11/01 08:28:47;;;;;;;12.27;3.47;;;;;;;13.00;100.00;101051.28;4991246;28;20042;-51
2022/11/01 08:31:12;;;;;;;17.65;3.10;;;;;;;12.72;100.00;100985.47;4991284;28;20042;-48
2022/11/01 08:33:38;;;;;;;14.60;3.25;;;;;;;12.94;100.00;100999.56;4990165;28;20034;-50
2022/11/01 08:36:03;;;;;;;15.77;3.17;;;;;;;13.07;100.00;101028.13;4990790;28;20038;-50
2022/11/01 08:38:29;;;;;;;14.18;2.80;;;;;;;13.34;100.00;101074.63;5006592;28;20062;-48
2022/11/01 08:40:54;;;;;;;14.73;2.95;;;;;;;13.14;100.00;101027.84;4989012;28;20161;-54
2022/11/01 08:43:20;;;;;;;12.75;3.25;;;;;;;13.13;100.00;101038.50;4991082;28;20334;-48
2022/11/01 08:45:46;;;;;;;20.58;3.38;;;;;;;12.91;100.00;100998.81;4989139;28;20046;-52
2022/11/01 08:48:11;;;;;;;11.88;2.55;;;;;;;12.93;100.00;101015.44;4991193;28;20041;-51
2022/11/01 08:50:37;;;;;;;16.70;3.22;;;;;;;13.21;100.00;101068.13;4990885;28;20117;-51
2022/11/01 08:53:07;;;;;;;13.10;2.45;;;;;;;12.87;100.00;101027.13;4991505;28;20035;-54
2022/11/01 08:55:33;;;;;;;16.70;3.23;;;;;;;13.17;100.00;101064.72;5005943;28;20059;-58
2022/11/01 08:57:58;;;;;;;14.45;2.95;;;;;;;12.89;100.00;101035.88;4989759;28;20036;-50
2022/11/01 09:00:24;;;;;;;8.68;2.25;;;;;;;13.27;100.00;101110.19;5005899;28;20057;-49
2022/11/01 09:02:49;;;;;;;13.02;2.60;;;;;;;13.29;100.00;101074.81;4990473;28;20046;-49
2022/11/01 09:05:15;;;;;;;11.57;2.88;;;;;;;13.43;100.00;101087.47;4990776;28;20351;-54
2022/11/01 09:07:40;;;;;;;16.98;3.40;;;;;;;13.49;100.00;101109.25;5005796;28;20053;-49
2022/11/01 09:10:06;;;;;;;14.32;3.05;;;;;;;13.24;100.00;101060.06;4994137;28;20046;-50
2022/11/01 09:12:32;;;;;;;12.63;2.75;;;;;;;13.27;100.00;101060.81;4993258;28;20469;-52
2022/11/01 09:14:57;;;;;;;14.82;3.20;;;;;;;13.52;100.00;101095.91;4994643;28;20070;-47
2022/11/01 09:17:23;;;;;;;11.63;2.83;;;;;;;13.39;100.00;101068.28;4994073;28;20042;-48
2022/11/01 09:19:48;;;;;;;13.00;2.90;;;;;;;13.76;100.00;101125.81;4994507;28;20038;-50
2022/11/01 09:22:13;;;;;;;14.73;2.58;;;;;;;13.74;100.00;101135.59;4994515;28;20030;-54
2022/11/01 09:24:38;;;;;;;8.93;2.65;;;;;;;13.49;100.00;101066.09;4994327;28;20521;-51
2022/11/01 09:27:06;;;;;;;15.82;3.58;;;;;;;13.78;100.00;101139.81;4994234;28;20042;-49
2022/11/01 09:29:31;;;;;;;14.32;3.00;;;;;;;13.58;100.00;101097.44;4994582;28;20034;-56
2022/11/01 09:31:56;;;;;;;11.88;2.95;;;;;;;13.97;100.00;101142.59;4993971;28;20048;-49
2022/11/01 09:34:21;;;;;;;13.50;2.78;;;;;;;14.02;100.00;101137.97;4994222;28;20394;-52
2022/11/01 09:36:47;;;;;;;16.80;3.42;;;;;;;14.03;100.00;101134.41;4994381;28;20054;-54
2022/11/01 09:39:15;;;;;;;16.23;3.38;;;;;;;14.10;100.00;101157.88;4994142;28;20046;-49
2022/11/01 09:41:51;;;;;;;13.68;2.80;;;;;;;14.08;100.00;101157.09;5008730;28;20117;-51
2022/11/01 09:44:19;;;;;;;13.38;2.90;;;;;;;14.04;100.00;101159.91;4994075;28;20034;-50
2022/11/01 09:46:51;;;;;;;10.90;2.60;;;;;;;13.97;100.00;101153.19;5006920;28;20070;-49
2022/11/01 09:49:23;;;;;;;17.52;3.08;;;;;;;14.01;100.00;101168.84;4992967;28;20383;-50
2022/11/01 09:51:48;;;;;;;11.73;2.60;;;;;;;13.84;100.00;101139.59;4992972;28;20045;-52
2022/11/01 09:54:15;;;;;;;22.25;3.40;;;;;;;13.82;100.00;101159.97;4992487;28;20050;-50
2022/11/01 09:56:44;;;;;;;12.85;2.67;;;;;;;13.54;100.00;101104.66;4992744;28;20030;-49
2022/11/01 09:59:29;;;;;;;11.27;2.28;;;;;;;13.86;100.00;101166.00;4993982;28;20026;-52
2022/11/01 10:02:11;;;;;;;13.30;3.35;;;;;;;13.49;100.00;101122.50;4994212;28;20072;-53
2022/11/01 10:04:57;;;;;;;13.10;2.83;;;;;;;13.91;100.00;101169.31;4993861;28;20116;-48
2022/11/01 10:07:31;;;;;;;9.88;2.28;;;;;;;13.95;100.00;101177.03;4993534;28;20037;-49
2022/11/01 10:10:15;;;;;;;10.65;2.88;;;;;;;14.02;100.00;101177.66;5008400;28;20026;-49
2022/11/01 10:13:14;;;;;;;9.23;2.38;;;;;;;14.24;100.00;101177.66;5008926;28;20038;-52
2022/11/01 10:16:09;;;;;;;8.90;2.00;;;;;;;14.61;100.00;101191.94;4993652;28;20180;-47
2022/11/01 10:18:40;;;;;;;16.75;2.58;;;;;;;14.76;100.00;101190.41;5008005;28;20037;-50
2022/11/01 10:21:12;;;;;;;15.90;3.10;;;;;;;14.79;100.00;101203.53;4993010;28;20433;-48
2022/11/01 10:23:40;;;;;;;9.48;2.72;;;;;;;14.49;100.00;101146.56;5008422;28;20038;-49
2022/11/01 10:26:07;;;;;;;12.45;3.33;;;;;;;14.77;100.00;101197.41;4993229;28;20034;-52
2022/11/01 10:28:45;;;;;;;11.30;2.90;;;;;;;14.82;100.00;101207.81;5008257;28;20393;-51
2022/11/01 10:31:17;;;;;;;13.88;3.25;;;;;;;14.98;100.00;101215.03;4992009;28;20030;-53
2022/11/01 10:33:54;;;;;;;11.20;2.30;;;;;;;14.81;100.00;101179.59;4993258;28;20084;-54
2022/11/01 10:36:24;;;;;;;12.55;2.30;;;;;;;14.92;100.00;101175.53;4993057;28;20026;-55
2022/11/01 10:39:00;;;;;;;14.18;2.70;;;;;;;15.35;100.00;101230.16;5008031;28;20100;-54
2022/11/01 10:41:35;;;;;;;8.40;2.47;;;;;;;15.62;100.00;101230.66;5007568;28;20038;-53
2022/11/01 10:44:03;;;;;;;7.07;2.22;;;;;;;15.55;100.00;101177.06;4993047;28;20042;-48
2022/11/01 10:46:37;;;;;;;10.10;2.65;;;;;;;15.99;100.00;101222.69;4991337;28;20053;-53
2022/11/01 10:49:06;;;;;;;9.63;2.42;;;;;;;15.79;100.00;101227.25;4993027;28;20042;-50
2022/11/01 10:51:33;;;;;;;8.27;2.67;;;;;;;15.24;100.00;101189.97;4992148;28;20077;-54
2022/11/01 10:54:03;;;;;;;11.18;3.05;;;;;;;15.28;100.00;101219.88;4992350;28;20038;-49
2022/11/01 10:56:40;;;;;;;12.25;2.30;;;;;;;14.97;100.00;101207.97;5007809;28;20110;-50
2022/11/01 10:59:13;;;;;;;9.40;2.85;;;;;;;14.75;100.00;101185.16;5007321;28;20085;-53
2022/11/01 11:01:43;;;;;;;11.82;2.45;;;;;;;14.82;100.00;101215.78;4992631;28;20038;-54
2022/11/01 11:04:13;;;;;;;8.95;2.63;;;;;;;14.70;100.00;101213.66;4990939;28;20034;-53
2022/11/01 11:06:39;;;;;;;6.57;2.38;;;;;;;14.42;100.00;101172.44;4992362;28;20061;-51
2022/11/01 11:09:05;;;;;;;11.20;2.85;;;;;;;14.69;100.00;101220.72;4992608;28;20413;-56
2022/11/01 11:11:37;;;;;;;10.07;2.30;;;;;;;14.43;100.00;101175.97;5006743;28;20038;-49
2022/11/01 11:14:07;;;;;;;14.02;2.72;;;;;;;14.68;100.00;101213.72;4992390;28;20046;-50
2022/11/01 11:16:45;;;;;;;11.82;2.08;;;;;;;14.79;100.00;101242.41;5006842;28;20041;-51
2022/11/01 11:19:14;;;;;;;10.30;2.30;;;;;;;14.77;100.00;101208.00;4991132;28;20470;-51
2022/11/01 11:21:43;;;;;;;10.73;2.38;;;;;;;14.52;100.00;101165.84;4992302;28;20499;-49